Terminal Aerodrome Forecast
Issued by NWS Tampa Bay Area, FL

Home | Current Version | Previous Version | Text Only | Print | Product List | Glossary On
Versions: 1 2 3 4 5 6 7 8 9 10 11 12 13 14 15 16 17 18 19 20
000
FTUS42 KTBW 301700
TAFFMY
TAF
KFMY 301735Z 3018/3118 27010KT P6SM VCTS SCT035CB BKN120
     FM310000 30004KT P6SM BKN250
     FM311400 23006KT P6SM FEW040 SCT250=

USA.gov is the U.S. government's official web portal to all federal, state and local government web resources and services.